.
WxDataArchive / Data Records for 2009-10-20
2009-10-19 October 2009 2009-10-21

Data Records for Tuesday, 20 October 2009

Time	Temp	Chill	HIndex	Humid	Dewpt	 Wind 	HiWind	WindDir	Rain 	Barom 
-----	----	-----	------	-----	-----	------	------	-------	-----	----- 
00:00	50.4	50.4	50.4	62	37.9	0	1	225	0.00	30.082 
00:05	50.1	50.1	50.1	63	38.0	0	2	225	0.00	30.082 
00:10	49.9	49.9	49.9	63	37.8	0	1	225	0.00	30.082 
00:15	49.6	49.6	49.6	64	37.9	0	1	225	0.00	30.080 
00:20	49.6	49.6	49.6	64	37.9	0	2	225	0.00	30.080 
00:25	49.5	49.5	49.5	64	37.8	0	1	225	0.00	30.080 
00:30	49.4	49.4	49.4	65	38.1	0	1	225	0.00	30.080 
00:35	49.2	49.2	49.2	65	37.9	0	1	225	0.00	30.080 
00:40	49.1	49.1	49.1	65	37.8	0	0	---	0.00	30.080 
00:45	48.9	48.9	48.9	65	37.7	0	1	225	0.00	30.082 
00:50	48.8	48.8	48.8	66	38.0	0	1	225	0.00	30.082 
00:55	48.6	48.6	48.6	66	37.8	0	0	---	0.00	30.082 
01:00	48.5	48.5	48.5	66	37.7	0	0	---	0.00	30.082 
01:05	48.3	48.3	48.3	67	37.9	0	0	---	0.00	30.082 
01:10	48.2	48.2	48.2	67	37.8	0	1	225	0.00	30.082 
01:15	48.2	48.2	48.2	68	38.1	0	0	---	0.00	30.079 
01:20	48.0	48.0	48.0	68	37.9	0	1	225	0.00	30.079 
01:25	48.0	48.0	48.0	68	37.9	0	1	225	0.00	30.079 
01:30	48.2	48.2	48.2	68	38.1	0	1	225	0.00	30.079 
01:35	48.3	48.3	48.3	68	38.2	0	1	225	0.00	30.079 
01:40	48.5	48.5	48.5	68	38.4	0	2	225	0.00	30.079 
01:45	48.6	48.6	48.6	67	38.1	0	3	225	0.00	30.080 
01:50	48.8	48.8	48.8	67	38.3	0	1	225	0.00	30.080 
01:55	48.9	48.9	48.9	67	38.4	0	3	248	0.00	30.080 
02:00	48.9	48.9	48.9	67	38.4	0	1	248	0.00	30.081 
02:05	48.9	48.9	48.9	66	38.0	0	1	248	0.00	30.081 
02:10	49.1	49.1	49.1	66	38.2	0	1	248	0.00	30.081 
02:15	49.1	49.1	49.1	67	38.6	0	1	248	0.00	30.084 
02:20	48.9	48.9	48.9	67	38.4	0	2	248	0.00	30.084 
02:25	48.9	48.9	48.9	67	38.4	0	1	248	0.00	30.084 
02:30	48.8	48.8	48.8	67	38.3	0	4	248	0.00	30.085 
02:35	48.8	48.8	48.8	67	38.3	0	3	248	0.00	30.085 
02:40	48.6	48.6	48.6	67	38.1	0	2	270	0.00	30.085 
02:45	48.6	48.6	48.6	67	38.1	0	2	270	0.00	30.083 
02:50	48.5	48.5	48.5	68	38.4	0	1	270	0.00	30.083 
02:55	48.5	48.5	48.5	68	38.4	0	1	270	0.00	30.083 
03:00	48.3	48.3	48.3	68	38.2	0	1	270	0.00	30.084 
03:05	48.2	48.2	48.2	69	38.5	0	0	---	0.00	30.084 
03:10	48.0	48.0	48.0	69	38.3	0	2	270	0.00	30.084 
03:15	48.0	48.0	48.0	69	38.3	0	3	270	0.00	30.088 
03:20	48.0	48.0	48.0	69	38.3	0	1	270	0.00	30.088 
03:25	47.9	47.9	47.9	69	38.2	0	1	270	0.00	30.088 
03:30	48.0	48.0	48.0	69	38.3	0	2	270	0.00	30.089 
03:35	48.0	48.0	48.0	69	38.3	0	1	270	0.00	30.089 
03:40	48.0	48.0	48.0	69	38.3	0	1	270	0.00	30.089 
03:45	48.0	48.0	48.0	69	38.3	0	1	270	0.00	30.084 
03:50	47.9	47.9	47.9	70	38.6	0	3	270	0.00	30.084 
03:55	48.2	48.2	48.2	69	38.5	0	3	248	0.00	30.084 
04:00	48.2	48.2	48.2	69	38.5	0	2	248	0.00	30.084 
04:05	48.2	48.2	48.2	69	38.5	0	1	248	0.00	30.084 
04:10	48.2	48.2	48.2	69	38.5	0	3	248	0.00	30.084 
04:15	48.2	48.2	48.2	69	38.5	0	1	248	0.00	30.081 
04:20	48.2	48.2	48.2	69	38.5	0	5	248	0.00	30.081 
04:25	48.2	48.2	48.2	69	38.5	0	2	248	0.00	30.081 
04:30	48.0	48.0	48.0	70	38.7	0	3	248	0.00	30.080 
04:35	48.0	48.0	48.0	70	38.7	0	2	248	0.00	30.080 
04:40	48.0	48.0	48.0	70	38.7	0	4	248	0.00	30.080 
04:45	48.0	48.0	48.0	70	38.7	0	2	248	0.00	30.080 
04:50	48.0	48.0	48.0	70	38.7	0	3	248	0.00	30.080 
04:55	48.0	48.0	48.0	70	38.7	0	3	248	0.00	30.080 
05:00	48.0	48.0	48.0	70	38.7	1	3	248	0.00	30.082 
05:05	48.2	48.2	48.2	70	38.9	1	3	248	0.00	30.082 
05:10	48.2	48.2	48.2	70	38.9	0	2	248	0.00	30.082 
05:15	48.2	48.2	48.2	70	38.9	0	2	248	0.00	30.082 
05:20	48.0	48.0	48.0	70	38.7	0	3	248	0.00	30.082 
05:25	48.0	48.0	48.0	70	38.7	0	2	248	0.00	30.082 
05:30	48.0	48.0	48.0	70	38.7	0	5	248	0.00	30.086 
05:35	48.0	48.0	48.0	70	38.7	0	4	248	0.00	30.086 
05:40	48.0	48.0	48.0	70	38.7	0	2	248	0.00	30.086 
05:45	48.0	48.0	48.0	71	39.1	0	3	248	0.00	30.087 
05:50	48.0	48.0	48.0	71	39.1	0	2	248	0.00	30.087 
05:55	48.2	48.2	48.2	71	39.2	0	2	248	0.00	30.087 
06:00	48.2	48.2	48.2	71	39.2	0	2	248	0.00	30.091 
06:05	48.2	48.2	48.2	71	39.2	0	2	248	0.00	30.091 
06:10	48.2	48.2	48.2	71	39.2	0	1	248	0.00	30.091 
06:15	48.2	48.2	48.2	71	39.2	0	1	248	0.00	30.096 
06:20	48.2	48.2	48.2	71	39.2	0	2	248	0.00	30.096 
06:25	48.3	48.3	48.3	71	39.3	0	3	248	0.00	30.096 
06:30	48.3	48.3	48.3	71	39.3	0	2	248	0.00	30.097 
06:35	48.5	48.5	48.5	71	39.5	0	2	248	0.00	30.097 
06:40	48.5	48.5	48.5	71	39.5	0	1	248	0.00	30.097 
06:45	48.6	48.6	48.6	71	39.6	0	4	248	0.00	30.098 
06:50	48.6	48.6	48.6	71	39.6	0	2	248	0.00	30.098 
06:55	48.8	48.8	48.8	70	39.5	0	3	248	0.00	30.098 
07:00	48.8	48.8	48.8	70	39.5	1	5	270	0.00	30.104 
07:05	48.9	48.9	48.9	70	39.6	1	4	248	0.00	30.104 
07:10	49.1	49.1	49.1	70	39.7	1	5	248	0.00	30.104 
07:15	49.2	49.2	49.2	69	39.5	1	5	292	0.00	30.111 
07:20	49.4	49.4	49.4	69	39.7	1	3	270	0.00	30.111 
07:25	49.4	49.4	49.4	69	39.7	0	2	270	0.00	30.111 
07:30	49.2	49.2	49.2	69	39.5	0	2	248	0.00	30.113 
07:35	49.2	49.2	49.2	69	39.5	0	4	248	0.00	30.113 
07:40	49.2	49.2	49.2	70	39.8	0	2	248	0.00	30.113 
07:45	49.2	49.2	49.2	70	39.8	0	2	248	0.00	30.115 
07:50	49.2	49.2	49.2	70	39.8	0	3	248	0.00	30.115 
07:55	49.2	49.2	49.2	70	39.8	0	1	248	0.00	30.115 
08:00	49.2	49.2	49.2	70	39.8	0	2	248	0.00	30.117 
08:05	49.2	49.2	49.2	70	39.8	1	3	248	0.00	30.117 
08:10	49.4	49.4	49.4	70	40.0	1	3	248	0.00	30.117 
08:15	49.4	49.4	49.4	70	40.0	1	7	248	0.00	30.115 
08:20	49.5	49.5	49.5	70	40.1	1	4	248	0.00	30.115 
08:25	49.5	49.5	49.5	70	40.1	0	4	270	0.00	30.115 
08:30	49.5	49.5	49.5	70	40.1	1	2	248	0.00	30.123 
08:35	49.6	49.6	49.6	69	39.9	1	4	248	0.00	30.123 
08:40	49.6	49.6	49.6	69	39.9	1	5	225	0.00	30.123 
08:45	49.8	49.8	49.8	69	40.0	1	5	248	0.00	30.120 
08:50	49.8	49.8	49.8	69	40.0	1	3	270	0.00	30.120 
08:55	49.9	49.9	49.9	70	40.5	1	3	248	0.00	30.120 
09:00	49.9	49.9	49.9	69	40.1	0	3	248	0.00	30.119 
09:05	50.1	50.1	50.1	69	40.3	1	4	248	0.00	30.119 
09:10	50.1	50.1	50.1	69	40.3	0	3	248	0.00	30.119 
09:15	50.1	50.1	50.1	69	40.3	1	4	248	0.00	30.117 
09:20	50.2	50.2	50.2	70	40.8	1	5	248	0.00	30.117 
09:25	50.2	50.2	50.2	69	40.4	1	4	248	0.00	30.117 
09:30	50.4	50.4	50.4	70	41.0	0	2	248	0.00	30.121 
09:35	50.4	50.4	50.4	70	41.0	0	3	248	0.00	30.121 
09:40	50.4	50.4	50.4	70	41.0	0	4	225	0.00	30.121 
09:45	50.4	50.4	50.4	70	41.0	0	4	248	0.00	30.126 
09:50	50.7	50.7	50.7	69	40.9	1	4	248	0.00	30.126 
09:55	51.3	51.3	51.3	69	41.5	1	4	270	0.00	30.126 
10:00	51.9	51.9	51.9	68	41.7	1	3	0	0.00	30.123 
10:05	52.3	52.3	52.3	67	41.7	1	6	292	0.00	30.123 
10:10	52.8	52.8	52.8	66	41.8	1	4	270	0.00	30.123 
10:15	53.3	53.3	53.3	65	41.8	2	7	270	0.00	30.121 
10:20	53.6	53.6	53.6	65	42.1	2	6	248	0.00	30.121 
10:25	53.9	53.9	53.9	64	42.0	1	4	248	0.00	30.121 
10:30	54.2	54.2	54.2	64	42.3	1	5	248	0.00	30.123 
10:35	54.2	54.2	54.2	63	41.9	1	5	315	0.00	30.123 
10:40	54.5	54.5	54.5	64	42.6	1	4	270	0.00	30.123 
10:45	54.7	54.7	54.7	63	42.4	2	5	248	0.00	30.117 
10:50	54.7	54.7	54.7	63	42.4	1	5	248	0.00	30.117 
10:55	55.0	55.0	55.0	64	43.0	1	6	270	0.00	30.117 
11:00	55.4	55.4	55.4	63	43.0	1	3	248	0.00	30.117 
11:05	55.9	55.9	55.9	62	43.1	1	4	248	0.00	30.117 
11:10	55.9	55.9	55.9	62	43.1	2	4	248	0.00	30.117 
11:15	56.0	56.0	56.0	62	43.2	1	3	248	0.00	30.120 
11:20	56.2	56.2	56.2	62	43.4	1	4	248	0.00	30.120 
11:25	56.3	56.3	56.3	63	43.9	1	3	248	0.00	30.120 
11:30	56.5	56.5	56.5	60	42.8	2	4	248	0.00	30.118 
11:35	56.6	56.6	56.6	61	43.3	2	5	248	0.00	30.118 
11:40	57.0	57.0	57.0	61	43.7	1	4	270	0.00	30.118 
11:45	57.6	57.6	57.6	61	44.2	2	3	248	0.00	30.111 
11:50	58.1	58.1	58.1	59	43.8	2	3	270	0.00	30.111 
11:55	58.6	58.6	58.6	59	44.3	1	3	270	0.00	30.111 
12:00	58.6	58.6	58.6	58	43.9	1	3	248	0.00	30.116 
12:05	58.4	58.4	58.4	58	43.7	2	5	248	0.00	30.116 
12:10	58.9	58.9	58.9	59	44.6	1	3	248	0.00	30.116 
12:15	59.3	59.3	59.3	58	44.5	1	3	292	0.00	30.119 
12:20	59.8	59.8	59.8	57	44.5	2	3	270	0.00	30.119 
12:25	59.9	59.9	59.9	57	44.6	1	4	270	0.00	30.119 
12:30	59.5	59.5	59.5	58	44.7	1	4	248	0.00	30.119 
12:35	59.3	59.3	59.3	57	44.1	1	4	248	0.00	30.119 
12:40	59.5	59.5	59.5	58	44.7	1	3	248	0.00	30.119 
12:45	59.3	59.3	59.3	58	44.5	1	3	248	0.00	30.116 
12:50	59.9	59.9	59.9	59	45.5	1	3	248	0.00	30.116 
12:55	60.5	60.5	60.5	57	45.2	1	3	248	0.00	30.116 
13:00	61.0	61.0	61.0	57	45.7	1	3	248	0.00	30.110 
13:05	61.2	61.2	61.2	55	44.9	1	3	248	0.00	30.110 
13:10	61.3	61.3	61.3	56	45.5	0	2	248	0.00	30.110 
13:15	61.5	61.5	61.5	56	45.7	1	5	248	0.00	30.109 
13:20	61.8	61.8	61.8	58	46.9	1	5	270	0.00	30.109 
13:25	62.1	62.1	62.1	58	47.1	1	4	248	0.00	30.109 
13:30	62.3	62.3	62.3	55	45.9	1	4	270	0.00	30.107 
13:35	62.4	62.4	62.4	54	45.5	1	4	270	0.00	30.107 
13:40	62.6	62.6	62.6	54	45.7	1	5	248	0.00	30.107 
13:45	62.7	62.7	62.7	56	46.8	1	2	248	0.00	30.105 
13:50	62.7	62.7	62.7	54	45.8	1	4	248	0.00	30.105 
13:55	62.4	62.4	62.4	55	46.0	1	4	248	0.00	30.105 
14:00	62.4	62.4	62.4	55	46.0	1	4	248	0.00	30.105 
14:05	62.7	62.7	62.7	54	45.8	1	3	270	0.00	30.105 
14:10	62.9	62.9	62.9	54	46.0	1	3	270	0.00	30.105 
14:15	62.9	62.9	62.9	55	46.5	1	4	248	0.00	30.104 
14:20	62.7	62.7	62.7	55	46.3	0	2	248	0.00	30.104 
14:25	63.1	63.1	63.1	58	48.1	1	2	248	0.00	30.104 
14:30	63.5	63.5	63.5	55	47.0	1	3	248	0.00	30.099 
14:35	63.7	63.7	63.7	54	46.7	1	5	248	0.00	30.099 
14:40	63.7	63.7	63.7	54	46.7	1	2	248	0.00	30.099 
14:45	64.0	64.0	64.0	54	47.0	0	3	158	0.00	30.091 
14:50	64.5	64.5	64.5	53	47.0	1	7	292	0.00	30.091 
14:55	64.7	64.7	64.7	52	46.7	1	5	270	0.00	30.091 
15:00	65.0	65.0	65.0	52	46.9	2	4	270	0.00	30.089 
15:05	65.2	65.2	65.2	51	46.6	1	4	270	0.00	30.089 
15:10	65.0	65.0	65.0	52	46.9	1	4	270	0.00	30.089 
15:15	64.8	64.8	64.8	53	47.3	0	3	270	0.00	30.087 
15:20	64.7	64.7	64.7	52	46.7	1	4	270	0.00	30.087 
15:25	64.3	64.3	64.3	53	46.8	1	3	292	0.00	30.087 
15:30	64.2	64.2	64.2	53	46.7	1	4	248	0.00	30.086 
15:35	64.2	64.2	64.2	54	47.2	1	3	248	0.00	30.086 
15:40	64.3	64.3	64.3	53	46.8	1	4	248	0.00	30.086 
15:45	64.5	64.5	64.5	54	47.5	0	3	248	0.00	30.086 
15:50	64.7	64.7	64.7	53	47.2	1	4	270	0.00	30.086 
15:55	64.7	64.7	64.7	54	47.7	0	2	248	0.00	30.086 
16:00	64.7	64.7	64.7	53	47.2	1	6	248	0.00	30.089 
16:05	64.5	64.5	64.5	53	47.0	1	5	225	0.00	30.089 
16:10	64.5	64.5	64.5	52	46.5	1	5	248	0.00	30.089 
16:15	64.5	64.5	64.5	54	47.5	0	3	248	0.00	30.089 
16:20	64.7	64.7	64.7	53	47.2	0	2	248	0.00	30.089 
16:25	64.8	64.8	64.8	53	47.3	1	4	248	0.00	30.089 
16:30	64.8	64.8	64.8	52	46.8	1	2	248	0.00	30.091 
16:35	64.8	64.8	64.8	53	47.3	1	3	248	0.00	30.091 
16:40	64.7	64.7	64.7	53	47.2	1	4	270	0.00	30.091 
16:45	64.7	64.7	64.7	54	47.7	0	2	270	0.00	30.088 
16:50	64.8	64.8	64.8	54	47.8	0	3	112	0.00	30.088 
16:55	65.2	65.2	65.2	53	47.6	0	1	112	0.00	30.088 
17:00	65.3	65.3	65.3	52	47.2	0	1	112	0.00	30.075 
17:05	65.6	65.6	65.6	54	48.5	0	1	112	0.00	30.075 
17:10	66.0	66.0	66.0	52	47.9	0	1	112	0.00	30.075 
17:15	66.3	66.3	66.3	52	48.1	0	2	112	0.00	30.073 
17:20	66.4	66.4	66.4	51	47.7	1	2	112	0.00	30.073 
17:25	66.6	66.6	66.6	52	48.4	0	2	90	0.00	30.073 
17:30	66.6	66.6	66.6	52	48.4	0	2	90	0.00	30.069 
17:35	66.6	66.6	66.6	53	48.9	0	2	90	0.00	30.069 
17:40	66.4	66.4	66.4	52	48.2	1	3	90	0.00	30.069 
17:45	66.3	66.3	66.3	52	48.1	1	5	292	0.00	30.073 
17:50	66.1	66.1	66.1	53	48.5	0	3	315	0.00	30.073 
17:55	66.0	66.0	66.0	53	48.4	1	4	248	0.00	30.073 
18:00	65.8	65.8	65.8	53	48.2	0	2	248	0.00	30.077 
18:05	65.6	65.6	65.6	54	48.5	0	2	248	0.00	30.077 
18:10	65.3	65.3	65.3	54	48.2	0	3	248	0.00	30.077 
18:15	65.2	65.2	65.2	54	48.1	0	2	248	0.00	30.083 
18:20	64.8	64.8	64.8	55	48.2	0	1	248	0.00	30.083 
18:25	64.7	64.7	64.7	55	48.2	0	1	248	0.00	30.083 
18:30	64.3	64.3	64.3	56	48.3	0	1	248	0.00	30.085 
18:35	64.2	64.2	64.2	57	48.6	0	0	---	0.00	30.085 
18:40	63.9	63.9	63.9	58	48.8	0	0	---	0.00	30.085 
18:45	63.5	63.5	63.5	58	48.5	0	0	---	0.00	30.081 
18:50	63.1	63.1	63.1	59	48.5	0	1	248	0.00	30.081 
18:55	62.9	62.9	62.9	60	48.8	0	0	---	0.00	30.081 
19:00	62.7	62.7	62.7	61	49.1	0	0	---	0.00	30.088 
19:05	63.2	63.2	63.2	60	49.1	0	0	---	0.00	30.088 
19:10	63.2	63.2	63.2	59	48.6	0	0	---	0.00	30.088 
19:15	63.2	63.2	63.2	60	49.1	0	0	---	0.00	30.091 
19:20	62.9	62.9	62.9	61	49.2	0	0	---	0.00	30.091 
19:25	62.9	62.9	62.9	61	49.2	0	0	---	0.00	30.091 
19:30	62.7	62.7	62.7	61	49.1	0	0	---	0.00	30.092 
19:35	62.6	62.6	62.6	61	49.0	0	0	---	0.00	30.092 
19:40	62.6	62.6	62.6	61	49.0	0	0	---	0.00	30.092 
19:45	62.4	62.4	62.4	62	49.2	0	0	---	0.00	30.100 
19:50	62.4	62.4	62.4	62	49.2	0	0	---	0.00	30.100 
19:55	62.3	62.3	62.3	62	49.1	0	0	---	0.00	30.100 
20:00	62.3	62.3	62.3	62	49.1	0	0	---	0.00	30.101 
20:05	62.1	62.1	62.1	62	48.9	0	0	---	0.00	30.101 
20:10	62.1	62.1	62.1	62	48.9	0	0	---	0.00	30.101 
20:15	62.1	62.1	62.1	62	48.9	0	0	---	0.00	30.103 
20:20	62.0	62.0	62.0	63	49.3	0	0	---	0.00	30.103 
20:25	61.8	61.8	61.8	63	49.1	0	0	---	0.00	30.103 
20:30	61.8	61.8	61.8	63	49.1	0	0	---	0.00	30.104 
20:35	61.8	61.8	61.8	63	49.1	0	0	---	0.00	30.104 
20:40	61.6	61.6	61.6	64	49.3	0	0	---	0.00	30.104 
20:45	61.6	61.6	61.6	64	49.3	0	0	---	0.00	30.107 
20:50	61.5	61.5	61.5	64	49.2	0	0	---	0.00	30.107 
20:55	61.3	61.3	61.3	65	49.4	0	0	---	0.00	30.107 
21:00	61.2	61.2	61.2	65	49.3	0	0	---	0.00	30.107 
21:05	61.0	61.0	61.0	65	49.1	0	0	---	0.00	30.107 
21:10	61.0	61.0	61.0	65	49.1	0	0	---	0.00	30.107 
21:15	60.9	60.9	60.9	65	49.1	0	0	---	0.00	30.105 
21:20	60.7	60.7	60.7	65	48.9	0	0	---	0.00	30.105 
21:25	60.7	60.7	60.7	65	48.9	0	0	---	0.00	30.105 
21:30	60.5	60.5	60.5	65	48.7	0	0	---	0.00	30.106 
21:35	60.4	60.4	60.4	65	48.6	0	0	---	0.00	30.106 
21:40	60.2	60.2	60.2	65	48.4	0	0	---	0.00	30.106 
21:45	59.9	59.9	59.9	65	48.1	0	0	---	0.00	30.109 
21:50	59.8	59.8	59.8	65	48.0	0	0	---	0.00	30.109 
21:55	59.6	59.6	59.6	65	47.8	0	0	---	0.00	30.109 
22:00	59.5	59.5	59.5	65	47.7	0	0	---	0.00	30.113 
22:05	59.3	59.3	59.3	66	47.9	0	0	---	0.00	30.113 
22:10	59.2	59.2	59.2	66	47.8	0	0	---	0.00	30.113 
22:15	58.9	58.9	58.9	65	47.2	0	0	---	0.00	30.116 
22:20	58.7	58.7	58.7	66	47.4	0	0	---	0.00	30.116 
22:25	58.6	58.6	58.6	67	47.7	0	0	---	0.00	30.116 
22:30	58.4	58.4	58.4	67	47.5	0	0	---	0.00	30.122 
22:35	58.4	58.4	58.4	66	47.1	0	0	---	0.00	30.122 
22:40	58.6	58.6	58.6	67	47.7	0	0	---	0.00	30.122 
22:45	58.9	58.9	58.9	65	47.2	0	1	248	0.00	30.123 
22:50	59.2	59.2	59.2	64	47.0	0	1	248	0.00	30.123 
22:55	59.3	59.3	59.3	64	47.1	0	0	---	0.00	30.123 
23:00	59.3	59.3	59.3	64	47.1	0	1	248	0.00	30.122 
23:05	59.3	59.3	59.3	63	46.7	0	1	248	0.00	30.122 
23:10	59.3	59.3	59.3	63	46.7	0	0	---	0.00	30.122 
23:15	59.5	59.5	59.5	63	46.9	0	2	248	0.00	30.122 
23:20	59.5	59.5	59.5	62	46.5	0	1	248	0.00	30.122 
23:25	59.5	59.5	59.5	62	46.5	0	1	248	0.00	30.122 
23:30	59.3	59.3	59.3	63	46.7	0	1	248	0.00	30.126 
23:35	59.2	59.2	59.2	63	46.6	0	1	248	0.00	30.126 
23:40	59.0	59.0	59.0	64	46.8	0	0	---	0.00	30.126 
23:45	58.7	58.7	58.7	64	46.6	0	0	---	0.00	30.127 
23:50	58.6	58.6	58.6	65	46.9	0	0	---	0.00	30.127 
23:55	58.3	58.3	58.3	65	46.6	0	0	---	0.00	30.127 

CoCoRaHS
IN-AL-39
A2 Web Hosting
Creative Commons License
GoDaddy
search engine by freefind advanced

loaded 2018-11-15 06:27:28 • last modified 2010-11-18 10:43:29
Privacy PolicyDisclaimer
• wx.awcolley.com is powered by PmWiki v.2002016 •
• all content (unless otherwise noted) © 2018 A W Colley